Time;durP1;ratioP1;P1;durP2;ratioP2;P2;SDS_P1;SDS_P2;PMS_P1;PMS_P2;Temp;Humidity;BMP_temperature;BMP_pressure;BME280_temperature;BME280_humidity;BME280_pressure;Samples;Min_cycle;Max_cycle;Signal;HPM_P1;HPM_P2
2021/12/26 00:01:06;;;;;;;9.93;6.37;;;3.40;79.40;;;;;;6349843;28;20180;-62
2021/12/26 00:04:07;;;;;;;8.17;6.50;;;3.30;80.00;;;;;;6350046;28;20205;-62
2021/12/26 00:07:08;;;;;;;8.40;5.60;;;3.30;79.80;;;;;;6367355;27;20196;-62
2021/12/26 00:10:12;;;;;;;8.47;6.00;;;3.30;79.80;;;;;;6366924;27;20253;-62
2021/12/26 00:13:13;;;;;;;8.57;5.87;;;3.30;79.30;;;;;;6348687;28;20183;-62
2021/12/26 00:16:14;;;;;;;7.73;5.57;;;3.30;79.20;;;;;;6332271;28;20219;-62
2021/12/26 00:19:15;;;;;;;8.93;5.97;;;3.30;79.50;;;;;;6350815;28;20198;-62
2021/12/26 00:22:16;;;;;;;7.83;5.47;;;3.30;79.00;;;;;;6332069;28;20195;-62
2021/12/26 00:25:16;;;;;;;8.37;5.87;;;3.30;79.20;;;;;;6349101;28;20191;-62
2021/12/26 00:28:17;;;;;;;9.07;6.40;;;3.10;79.70;;;;;;6346340;28;20327;-62
2021/12/26 00:31:19;;;;;;;7.87;5.43;;;3.20;79.70;;;;;;6365846;27;20191;-62
2021/12/26 00:34:20;;;;;;;7.53;5.63;;;3.20;79.50;;;;;;6326688;28;20236;-62
2021/12/26 00:37:20;;;;;;;11.60;6.37;;;3.20;79.20;;;;;;6324988;28;20180;-62
2021/12/26 00:40:22;;;;;;;9.30;6.90;;;3.20;79.30;;;;;;6306536;28;20224;-62
2021/12/26 00:43:24;;;;;;;8.33;5.60;;;3.10;79.50;;;;;;6364094;27;20191;-62
2021/12/26 00:46:25;;;;;;;9.73;5.87;;;2.90;80.30;;;;;;6329402;28;20199;-62
2021/12/26 00:49:26;;;;;;;7.47;5.70;;;2.90;80.10;;;;;;6349552;28;20198;-62
2021/12/26 00:52:26;;;;;;;8.57;6.20;;;3.00;80.00;;;;;;6347379;28;20192;-62
2021/12/26 00:55:28;;;;;;;7.37;5.13;;;3.00;80.10;;;;;;6366426;27;20228;-62
2021/12/26 00:58:29;;;;;;;7.73;5.20;;;3.00;79.80;;;;;;6366335;27;20263;-62
2021/12/26 01:01:30;;;;;;;8.07;5.63;;;3.00;79.40;;;;;;6365648;27;20198;-62
2021/12/26 01:04:31;;;;;;;8.00;4.63;;;3.00;79.30;;;;;;6365883;27;20284;-62
2021/12/26 01:07:45;;;;;;;7.43;4.63;;;3.00;79.70;;;;;;6380236;27;20182;-62
2021/12/26 01:11:16;;;;;;;5.97;4.50;;;2.90;80.00;;;;;;6305734;28;20251;-62
2021/12/26 01:14:24;;;;;;;5.73;4.53;;;2.80;80.30;;;;;;6330617;28;20211;-62
2021/12/26 01:17:58;;;;;;;7.83;4.93;;;2.80;80.20;;;;;;6333194;28;20210;-62
2021/12/26 01:21:17;;;;;;;9.83;5.27;;;2.80;80.60;;;;;;6366074;27;20567;-62
2021/12/26 01:24:19;;;;;;;6.83;5.03;;;2.60;81.30;;;;;;6366899;27;20196;-62
2021/12/26 01:27:21;;;;;;;7.13;5.50;;;2.50;82.30;;;;;;6352944;27;20285;-62
2021/12/26 01:30:22;;;;;;;6.13;4.30;;;2.30;83.20;;;;;;6322150;28;20199;-62
2021/12/26 01:33:27;;;;;;;5.23;4.33;;;2.30;82.80;;;;;;6322507;28;20181;-62
2021/12/26 01:36:39;;;;;;;6.87;5.10;;;2.30;82.90;;;;;;6312733;28;20226;-62
2021/12/26 01:40:19;;;;;;;7.47;4.77;;;2.20;83.30;;;;;;6270141;28;20205;-62
2021/12/26 01:43:30;;;;;;;5.60;4.53;;;2.10;83.90;;;;;;6253568;28;20193;-62
2021/12/26 01:46:41;;;;;;;6.70;4.97;;;2.30;83.80;;;;;;6321815;28;20283;-62
2021/12/26 01:49:42;;;;;;;7.13;5.60;;;2.20;83.90;;;;;;6338181;28;20192;-62
2021/12/26 01:52:43;;;;;;;5.73;4.20;;;2.10;84.90;;;;;;6365830;27;20327;-62
2021/12/26 01:55:46;;;;;;;6.27;4.47;;;2.10;84.70;;;;;;6363305;27;20207;-62
2021/12/26 01:58:47;;;;;;;5.37;4.70;;;2.10;84.60;;;;;;6365161;27;20275;-62
2021/12/26 02:02:09;;;;;;;5.87;4.57;;;2.10;85.10;;;;;;6344577;28;20605;-62
2021/12/26 02:05:10;;;;;;;5.87;4.90;;;2.00;84.70;;;;;;6305399;28;20237;-62
2021/12/26 02:08:11;;;;;;;6.83;5.13;;;1.90;85.20;;;;;;6321980;28;20252;-62
2021/12/26 02:11:14;;;;;;;5.37;4.70;;;2.00;85.10;;;;;;6351484;27;20283;-62
2021/12/26 02:14:15;;;;;;;6.37;4.80;;;2.00;85.20;;;;;;6346721;27;20219;-62
2021/12/26 02:17:38;;;;;;;6.93;4.87;;;2.00;84.70;;;;;;6333915;28;20195;-62
2021/12/26 02:24:19;;;;;;;7.10;5.70;;;2.00;85.30;;;;;;6333345;28;20294;-62
2021/12/26 02:27:32;;;;;;;6.30;5.10;;;1.90;86.10;;;;;;6342176;28;20226;-62
2021/12/26 02:30:34;;;;;;;6.03;5.03;;;1.90;86.60;;;;;;6321482;28;20292;-62
2021/12/26 02:33:35;;;;;;;6.40;5.03;;;1.90;86.00;;;;;;6317635;28;20223;-62
2021/12/26 02:36:36;;;;;;;6.80;4.63;;;1.90;85.90;;;;;;6380973;27;20194;-62
2021/12/26 02:39:37;;;;;;;7.47;5.37;;;1.90;86.20;;;;;;6347554;28;20172;-62
2021/12/26 02:42:38;;;;;;;7.13;5.57;;;1.90;86.40;;;;;;6362882;27;20191;-62
2021/12/26 02:45:40;;;;;;;6.93;4.70;;;1.80;86.40;;;;;;6345999;28;20241;-62
2021/12/26 02:48:41;;;;;;;6.27;5.00;;;1.90;86.00;;;;;;6363223;27;20196;-62
2021/12/26 02:51:43;;;;;;;7.60;5.83;;;1.80;86.80;;;;;;6381042;27;20247;-62
2021/12/26 02:54:44;;;;;;;6.30;4.57;;;1.70;87.20;;;;;;6327876;28;20222;-62
2021/12/26 02:57:50;;;;;;;7.20;5.67;;;1.70;87.30;;;;;;6362969;27;20190;-62
2021/12/26 03:01:15;;;;;;;6.07;4.77;;;1.70;87.60;;;;;;6325669;28;20185;-61
2021/12/26 03:04:16;;;;;;;7.00;5.17;;;1.80;87.70;;;;;;6348941;27;20184;-62
2021/12/26 03:07:17;;;;;;;6.77;4.97;;;1.90;86.90;;;;;;6363262;27;20217;-61
2021/12/26 03:10:22;;;;;;;6.07;4.90;;;1.90;86.80;;;;;;6346630;28;20243;-62
2021/12/26 03:13:23;;;;;;;6.87;5.33;;;1.90;86.80;;;;;;6374757;27;20270;-62
2021/12/26 03:16:24;;;;;;;6.80;5.40;;;1.80;86.90;;;;;;6346340;28;20236;-62
2021/12/26 03:19:25;;;;;;;5.67;4.43;;;1.80;87.90;;;;;;6329933;28;20223;-62
2021/12/26 03:22:25;;;;;;;7.73;5.20;;;1.90;87.30;;;;;;6323091;28;20197;-62
2021/12/26 03:25:27;;;;;;;6.60;4.90;;;1.90;86.50;;;;;;6326782;28;20200;-62
2021/12/26 03:28:29;;;;;;;6.93;5.10;;;1.90;86.70;;;;;;6333515;28;20196;-62
2021/12/26 03:31:30;;;;;;;8.00;5.80;;;1.90;87.40;;;;;;6368121;27;20238;-61
2021/12/26 03:34:31;;;;;;;6.97;5.27;;;1.80;87.30;;;;;;6341940;27;20216;-61
2021/12/26 03:37:32;;;;;;;6.40;5.13;;;1.80;87.50;;;;;;6366471;27;20235;-61
2021/12/26 03:40:39;;;;;;;7.77;5.80;;;1.80;87.80;;;;;;6317168;28;20280;-62
2021/12/26 03:43:40;;;;;;;7.60;5.13;;;1.80;87.30;;;;;;6326653;28;20700;-61
2021/12/26 03:46:42;;;;;;;6.07;4.60;;;1.80;87.80;;;;;;6341385;28;20216;-62
2021/12/26 03:49:44;;;;;;;7.23;5.23;;;1.90;87.50;;;;;;6355253;27;20187;-62
2021/12/26 03:52:46;;;;;;;7.67;5.70;;;2.00;87.10;;;;;;6347429;28;20184;-62
2021/12/26 03:55:48;;;;;;;6.80;6.00;;;2.00;86.90;;;;;;6367189;27;20702;-62
2021/12/26 03:58:50;;;;;;;8.17;5.37;;;2.00;87.10;;;;;;6324309;28;20188;-61
2021/12/26 04:01:51;;;;;;;6.97;5.17;;;2.00;86.80;;;;;;6378056;27;20219;-61
2021/12/26 04:04:52;;;;;;;6.50;5.27;;;1.80;86.90;;;;;;6366944;27;20232;-61
2021/12/26 04:07:53;;;;;;;9.03;6.10;;;1.90;87.00;;;;;;6334067;28;20196;-61
2021/12/26 04:10:55;;;;;;;6.80;5.20;;;2.00;86.80;;;;;;6333106;28;20270;-62
2021/12/26 04:13:56;;;;;;;6.90;5.60;;;2.00;86.60;;;;;;6373103;27;20195;-62
2021/12/26 04:16:56;;;;;;;7.50;5.93;;;1.90;87.00;;;;;;6346300;27;20188;-61
2021/12/26 04:19:58;;;;;;;8.93;6.77;;;2.00;87.10;;;;;;6325530;28;20215;-62
2021/12/26 04:22:59;;;;;;;8.27;5.97;;;1.90;87.60;;;;;;6323063;28;20190;-61
2021/12/26 04:26:00;;;;;;;9.83;7.00;;;1.90;87.90;;;;;;6367761;27;20634;-62
2021/12/26 04:29:01;;;;;;;9.77;6.50;;;1.80;87.20;;;;;;6348828;28;20201;-62
2021/12/26 04:32:02;;;;;;;8.07;6.50;;;1.90;88.00;;;;;;6331789;28;20199;-62
2021/12/26 04:35:03;;;;;;;9.17;7.13;;;1.80;87.70;;;;;;6349404;28;20222;-62
2021/12/26 04:38:04;;;;;;;6.33;4.97;;;1.80;88.00;;;;;;6366963;27;20188;-62
2021/12/26 04:41:06;;;;;;;7.73;5.60;;;1.80;88.00;;;;;;6339561;28;20198;-61
2021/12/26 04:44:13;;;;;;;7.77;5.73;;;1.90;87.50;;;;;;6325053;28;20195;-62
2021/12/26 04:47:21;;;;;;;6.67;5.40;;;1.90;87.60;;;;;;6308177;28;20197;-61
2021/12/26 04:50:24;;;;;;;9.07;6.70;;;1.90;87.40;;;;;;6357794;27;20203;-62
2021/12/26 04:53:33;;;;;;;9.10;6.60;;;1.90;87.10;;;;;;6358677;27;20212;-62
2021/12/26 04:56:34;;;;;;;8.57;6.67;;;1.90;87.60;;;;;;6362773;27;20207;-62
2021/12/26 04:59:35;;;;;;;6.97;5.77;;;1.80;87.60;;;;;;6330920;28;20223;-62
2021/12/26 05:02:37;;;;;;;7.87;6.50;;;1.80;87.90;;;;;;6348890;28;20208;-62
2021/12/26 05:05:37;;;;;;;8.00;6.03;;;1.80;88.00;;;;;;6349063;27;20223;-62
2021/12/26 05:08:38;;;;;;;9.20;6.83;;;1.90;87.90;;;;;;6340445;28;20199;-61
2021/12/26 05:11:39;;;;;;;9.60;6.73;;;1.90;87.70;;;;;;6287047;28;20264;-62
2021/12/26 05:14:40;;;;;;;7.70;5.40;;;1.90;87.50;;;;;;6339279;28;20216;-61
2021/12/26 05:17:41;;;;;;;8.20;6.53;;;1.90;87.50;;;;;;6339118;28;20172;-61
2021/12/26 05:20:44;;;;;;;8.27;6.30;;;1.90;87.30;;;;;;6338305;28;20195;-61
2021/12/26 05:23:45;;;;;;;7.97;6.23;;;1.80;87.80;;;;;;6342517;27;20203;-61
2021/12/26 05:26:45;;;;;;;7.13;6.00;;;1.70;87.90;;;;;;6290427;28;20188;-61
2021/12/26 05:29:47;;;;;;;8.20;6.37;;;1.70;88.20;;;;;;6312615;28;20223;-61
2021/12/26 05:32:48;;;;;;;8.23;6.60;;;1.70;88.20;;;;;;6364140;27;20277;-61
2021/12/26 05:35:49;;;;;;;9.77;7.47;;;1.70;88.20;;;;;;6381554;27;20216;-62
2021/12/26 05:38:50;;;;;;;8.63;6.77;;;1.70;87.90;;;;;;6344434;27;20220;-62
2021/12/26 05:41:51;;;;;;;9.03;6.83;;;1.70;88.10;;;;;;6325859;28;20188;-62
2021/12/26 05:45:06;;;;;;;9.43;7.03;;;1.80;88.00;;;;;;6291222;28;20185;-61
2021/12/26 05:48:10;;;;;;;8.67;6.03;;;1.80;87.60;;;;;;6321312;28;20185;-61
2021/12/26 05:51:11;;;;;;;9.60;7.10;;;1.80;87.60;;;;;;6326757;28;20217;-62
2021/12/26 05:54:31;;;;;;;9.13;6.83;;;1.80;87.40;;;;;;6348671;28;20212;-62
2021/12/26 05:57:34;;;;;;;9.60;6.93;;;1.80;87.20;;;;;;6330481;28;20283;-62
2021/12/26 06:00:35;;;;;;;7.87;6.17;;;1.80;87.40;;;;;;6329696;28;20192;-62
2021/12/26 06:03:36;;;;;;;7.30;6.23;;;1.90;86.80;;;;;;6346585;28;20186;-61
2021/12/26 06:06:37;;;;;;;9.33;7.33;;;1.80;87.00;;;;;;6331252;28;20190;-61
2021/12/26 06:09:38;;;;;;;9.13;6.37;;;1.80;87.80;;;;;;6354578;27;20229;-61
2021/12/26 06:12:39;;;;;;;9.93;7.37;;;1.90;87.80;;;;;;6322014;28;20199;-61
2021/12/26 06:15:40;;;;;;;7.40;5.73;;;1.90;87.20;;;;;;6338743;28;20238;-61
2021/12/26 06:18:41;;;;;;;8.03;6.80;;;1.90;87.60;;;;;;6338185;28;20188;-61
2021/12/26 06:22:02;;;;;;;9.70;7.30;;;1.90;87.20;;;;;;6336302;28;20197;-61
2021/12/26 06:25:24;;;;;;;9.67;6.80;;;2.00;87.10;;;;;;6288835;28;20200;-61
2021/12/26 06:28:57;;;;;;;11.37;7.47;;;2.00;87.20;;;;;;6325268;28;20203;-61
2021/12/26 06:32:10;;;;;;;10.63;7.63;;;1.90;87.30;;;;;;6346448;28;20249;-61
2021/12/26 06:35:29;;;;;;;9.90;7.40;;;1.90;87.50;;;;;;6346409;28;20216;-61
2021/12/26 06:38:49;;;;;;;10.53;7.60;;;1.80;87.50;;;;;;6325190;28;20195;-62
2021/12/26 06:42:08;;;;;;;9.40;7.40;;;1.80;87.60;;;;;;6321575;28;20174;-62
2021/12/26 06:45:18;;;;;;;10.10;6.90;;;1.80;88.60;;;;;;6344125;28;20274;-61
2021/12/26 06:48:41;;;;;;;10.40;7.53;;;1.70;88.60;;;;;;6347020;28;20196;-61
2021/12/26 06:51:45;;;;;;;8.90;6.87;;;1.80;88.10;;;;;;6377632;27;20188;-61
2021/12/26 06:54:46;;;;;;;8.90;7.33;;;1.90;87.80;;;;;;6338219;28;20280;-61
2021/12/26 06:57:47;;;;;;;7.40;6.17;;;1.90;87.30;;;;;;6340616;28;20186;-61
2021/12/26 07:00:48;;;;;;;8.70;6.27;;;1.90;87.30;;;;;;6346029;28;20198;-61
2021/12/26 07:03:49;;;;;;;8.73;6.83;;;2.00;87.20;;;;;;6320883;28;20241;-61
2021/12/26 07:06:50;;;;;;;9.37;7.27;;;2.00;87.40;;;;;;6304981;28;20184;-61
2021/12/26 07:10:00;;;;;;;9.47;7.00;;;1.90;87.30;;;;;;6307849;28;20228;-61
2021/12/26 07:13:01;;;;;;;10.50;8.00;;;2.00;87.60;;;;;;6344485;28;20212;-61
2021/12/26 07:16:08;;;;;;;11.23;7.80;;;1.90;87.20;;;;;;6342427;27;20641;-61
2021/12/26 07:19:08;;;;;;;9.27;7.23;;;1.90;88.10;;;;;;6320889;28;20313;-61
2021/12/26 07:22:12;;;;;;;11.30;8.20;;;1.90;87.10;;;;;;6320703;28;20208;-61
2021/12/26 07:25:15;;;;;;;10.67;7.90;;;1.80;87.50;;;;;;6292281;28;20183;-61
2021/12/26 07:28:16;;;;;;;10.23;7.70;;;1.80;87.70;;;;;;6366079;27;20200;-61
2021/12/26 07:31:17;;;;;;;9.33;7.20;;;1.90;88.10;;;;;;6320195;28;20312;-61
2021/12/26 07:34:21;;;;;;;9.53;7.10;;;2.00;87.60;;;;;;6293992;28;20216;-61
2021/12/26 07:37:22;;;;;;;9.67;7.60;;;2.00;87.70;;;;;;6321569;28;20200;-61
2021/12/26 07:40:24;;;;;;;10.77;7.77;;;2.10;87.00;;;;;;6310884;28;20191;-61
2021/12/26 07:43:26;;;;;;;11.80;8.47;;;2.10;86.60;;;;;;6320346;28;20188;-61
2021/12/26 07:46:50;;;;;;;11.57;7.93;;;2.00;87.20;;;;;;6308185;28;20200;-61
2021/12/26 07:49:53;;;;;;;13.60;8.93;;;2.10;87.00;;;;;;6320077;28;20185;-61
2021/12/26 07:53:12;;;;;;;10.83;8.30;;;2.10;87.10;;;;;;6335149;28;20263;-61
2021/12/26 07:56:31;;;;;;;9.97;7.57;;;2.00;87.00;;;;;;6330635;28;20216;-61
2021/12/26 07:59:51;;;;;;;11.30;7.43;;;2.10;86.20;;;;;;6345936;28;20196;-61
2021/12/26 08:03:10;;;;;;;12.47;9.03;;;2.00;86.70;;;;;;6345019;28;20196;-61
2021/12/26 08:06:31;;;;;;;10.10;7.57;;;2.00;86.80;;;;;;6345961;28;20198;-61
2021/12/26 08:09:31;;;;;;;12.83;8.60;;;2.00;86.80;;;;;;6339415;28;20198;-61
2021/12/26 08:12:32;;;;;;;12.70;8.73;;;2.00;86.80;;;;;;6308292;28;20686;-61
2021/12/26 08:15:33;;;;;;;13.30;9.03;;;2.10;86.40;;;;;;6323667;28;20215;-61
2021/12/26 08:18:34;;;;;;;11.90;9.43;;;2.10;85.90;;;;;;6308005;28;20283;-61
2021/12/26 08:21:35;;;;;;;15.73;10.70;;;2.00;86.50;;;;;;6348936;28;20184;-61
2021/12/26 08:24:36;;;;;;;13.80;9.90;;;1.90;86.90;;;;;;6355679;27;20192;-61
2021/12/26 08:27:37;;;;;;;12.77;9.57;;;1.80;86.90;;;;;;6311539;28;20208;-61
2021/12/26 08:30:38;;;;;;;12.93;9.33;;;1.90;86.60;;;;;;6325319;28;20193;-61
2021/12/26 08:33:38;;;;;;;15.57;10.90;;;2.10;86.40;;;;;;6328815;28;20188;-61
2021/12/26 08:36:39;;;;;;;14.37;10.57;;;2.10;86.40;;;;;;6350199;28;20219;-61
2021/12/26 08:39:43;;;;;;;14.93;11.07;;;2.10;87.20;;;;;;6350543;28;20180;-61
2021/12/26 08:42:44;;;;;;;27.37;16.47;;;2.10;87.00;;;;;;6315677;28;20196;-61
2021/12/26 08:45:45;;;;;;;19.97;11.90;;;2.10;86.70;;;;;;6350988;28;20186;-61
2021/12/26 08:48:47;;;;;;;14.77;10.10;;;2.10;86.50;;;;;;6348326;28;20191;-61
2021/12/26 08:51:48;;;;;;;12.73;9.17;;;2.10;86.20;;;;;;6348899;28;20215;-61
2021/12/26 08:54:49;;;;;;;13.43;9.17;;;2.10;86.50;;;;;;6348865;28;20219;-61
2021/12/26 08:57:54;;;;;;;12.27;9.03;;;2.00;86.20;;;;;;6356785;27;20213;-61
2021/12/26 09:00:55;;;;;;;17.37;11.23;;;2.00;86.70;;;;;;6341076;28;20173;-61
2021/12/26 09:03:56;;;;;;;15.73;9.97;;;1.90;87.00;;;;;;6342820;28;20188;-61
2021/12/26 09:06:57;;;;;;;12.73;9.10;;;1.90;87.40;;;;;;6348838;28;20203;-61
2021/12/26 09:09:58;;;;;;;13.07;9.93;;;2.10;86.70;;;;;;6349748;28;20309;-61
2021/12/26 09:12:59;;;;;;;12.00;8.73;;;2.20;85.50;;;;;;6349707;27;20190;-61
2021/12/26 09:16:00;;;;;;;14.63;9.90;;;2.30;86.20;;;;;;6357086;27;20344;-61
2021/12/26 09:19:03;;;;;;;12.80;8.13;;;2.20;85.50;;;;;;6312537;28;20235;-61
2021/12/26 09:22:08;;;;;;;15.73;9.97;;;2.10;86.20;;;;;;6349058;27;20222;-61
2021/12/26 09:25:11;;;;;;;15.53;9.70;;;2.10;86.80;;;;;;6365790;27;20226;-61
2021/12/26 09:28:12;;;;;;;16.80;10.33;;;2.10;86.50;;;;;;6348734;28;20204;-61
2021/12/26 09:31:13;;;;;;;15.40;10.33;;;2.20;86.50;;;;;;6332182;28;20193;-61
2021/12/26 09:34:15;;;;;;;16.57;10.53;;;2.10;86.30;;;;;;6331411;28;20246;-61
2021/12/26 09:37:15;;;;;;;14.00;9.83;;;2.00;86.70;;;;;;6348306;28;20192;-61
2021/12/26 09:40:17;;;;;;;17.53;11.73;;;2.00;86.90;;;;;;6347180;28;20183;-61
2021/12/26 09:43:18;;;;;;;16.70;10.77;;;2.10;88.00;;;;;;6346983;28;20180;-61
2021/12/26 09:46:18;;;;;;;15.27;9.23;;;2.20;87.50;;;;;;6335674;28;20257;-61
2021/12/26 09:49:19;;;;;;;15.73;10.93;;;2.30;86.40;;;;;;6306453;28;20712;-61
2021/12/26 09:52:20;;;;;;;13.77;10.17;;;2.30;85.90;;;;;;6316215;28;20196;-61
2021/12/26 09:55:21;;;;;;;14.93;10.00;;;2.10;86.30;;;;;;6324515;28;20300;-61
2021/12/26 09:58:22;;;;;;;15.40;10.17;;;2.10;86.30;;;;;;6346526;28;20195;-61
2021/12/26 10:01:44;;;;;;;14.90;10.07;;;2.20;86.20;;;;;;6313604;28;20255;-61
2021/12/26 10:04:47;;;;;;;14.93;9.97;;;2.30;85.50;;;;;;6329682;28;20187;-61
2021/12/26 10:08:05;;;;;;;14.50;10.13;;;2.30;86.30;;;;;;6364895;27;20565;-61
2021/12/26 10:11:16;;;;;;;17.67;10.80;;;2.20;86.80;;;;;;6330801;28;20250;-61
2021/12/26 10:14:33;;;;;;;14.03;9.90;;;2.30;85.90;;;;;;6364601;27;20211;-61
2021/12/26 10:17:34;;;;;;;15.43;11.30;;;2.30;86.40;;;;;;6364489;27;20375;-61
2021/12/26 10:20:36;;;;;;;16.03;10.23;;;2.40;85.90;;;;;;6331479;28;20208;-61
2021/12/26 10:23:37;;;;;;;13.60;9.00;;;2.50;85.40;;;;;;6345868;28;20193;-61
2021/12/26 10:27:00;;;;;;;14.47;9.63;;;2.50;85.60;;;;;;6347316;28;20187;-61
2021/12/26 10:30:05;;;;;;;14.57;9.80;;;2.50;85.20;;;;;;6303833;28;20200;-61
2021/12/26 10:33:06;;;;;;;14.80;9.73;;;2.60;84.40;;;;;;6355742;27;20188;-61
2021/12/26 10:36:07;;;;;;;13.57;8.90;;;2.60;84.10;;;;;;6316622;28;20219;-61
2021/12/26 10:39:22;;;;;;;16.30;10.83;;;2.60;85.00;;;;;;6354519;27;20193;-61
2021/12/26 10:42:28;;;;;;;15.47;9.73;;;2.50;85.40;;;;;;6345899;27;20192;-61
2021/12/26 10:45:32;;;;;;;15.83;9.07;;;2.50;85.20;;;;;;6345824;28;20635;-61
2021/12/26 10:48:33;;;;;;;13.50;9.07;;;2.50;85.90;;;;;;6346654;28;20184;-61
2021/12/26 10:51:35;;;;;;;14.73;9.53;;;2.50;86.00;;;;;;6346657;28;20194;-61
2021/12/26 10:54:36;;;;;;;13.53;9.37;;;2.50;86.00;;;;;;6344882;28;20222;-61
2021/12/26 10:57:39;;;;;;;14.17;9.43;;;2.70;84.80;;;;;;6380492;27;20179;-61
2021/12/26 11:00:45;;;;;;;15.03;10.03;;;2.70;85.00;;;;;;6321110;28;20200;-61
2021/12/26 11:03:45;;;;;;;15.60;9.43;;;2.60;85.20;;;;;;6304421;28;20191;-61
2021/12/26 11:07:20;;;;;;;15.03;9.67;;;2.60;84.90;;;;;;6345165;28;20199;-61
2021/12/26 11:10:24;;;;;;;13.33;9.10;;;2.70;83.30;;;;;;6306363;28;20232;-61
2021/12/26 11:13:30;;;;;;;16.43;11.17;;;2.60;84.40;;;;;;6363086;28;20183;-61
2021/12/26 11:16:39;;;;;;;16.93;11.00;;;2.70;85.40;;;;;;6353388;28;20236;-61
2021/12/26 11:19:41;;;;;;;17.27;11.50;;;2.60;84.80;;;;;;6321157;28;20270;-62
2021/12/26 11:22:42;;;;;;;14.83;9.90;;;2.60;86.20;;;;;;6346202;28;20192;-61
2021/12/26 11:25:47;;;;;;;14.27;9.63;;;2.70;85.60;;;;;;6345813;28;20264;-61
2021/12/26 11:28:51;;;;;;;14.87;10.03;;;2.60;85.10;;;;;;6346199;28;20176;-61
2021/12/26 11:31:54;;;;;;;16.33;10.03;;;2.80;84.40;;;;;;6344821;28;20245;-61
2021/12/26 11:34:56;;;;;;;13.47;9.07;;;2.80;84.20;;;;;;6337406;28;20219;-61
2021/12/26 11:37:58;;;;;;;15.37;10.10;;;2.90;82.80;;;;;;6338299;28;20199;-61
2021/12/26 11:41:46;;;;;;;15.33;10.37;;;2.80;83.20;;;;;;6337339;28;20216;-61
2021/12/26 11:45:29;;;;;;;14.93;10.40;;;2.70;85.20;;;;;;6351108;28;20181;-61
2021/12/26 11:49:29;;;;;;;12.50;8.67;;;2.80;84.10;;;;;;6328282;28;20249;-61
2021/12/26 11:53:19;;;;;;;13.47;8.50;;;2.80;83.50;;;;;;6350766;28;20173;-61
2021/12/26 11:56:57;;;;;;;14.07;9.40;;;2.90;83.20;;;;;;6348816;28;20216;-61
2021/12/26 12:00:13;;;;;;;12.73;9.57;;;2.90;84.80;;;;;;6324929;28;20180;-61
2021/12/26 12:03:27;;;;;;;13.30;9.23;;;2.80;84.30;;;;;;6324416;28;20189;-61
2021/12/26 12:06:28;;;;;;;10.60;7.40;;;2.90;84.80;;;;;;6308624;28;20184;-62
2021/12/26 12:09:35;;;;;;;12.30;9.30;;;2.90;83.40;;;;;;6331777;28;20219;-61
2021/12/26 12:12:41;;;;;;;13.83;8.43;;;2.80;84.40;;;;;;6342087;28;20209;-61
2021/12/26 12:15:47;;;;;;;13.53;9.43;;;2.80;83.80;;;;;;6366293;27;20211;-62
2021/12/26 12:18:47;;;;;;;12.63;8.63;;;2.80;84.00;;;;;;6334119;28;20190;-61
2021/12/26 12:21:50;;;;;;;12.57;8.73;;;3.00;83.00;;;;;;6332975;28;20186;-61
2021/12/26 12:24:52;;;;;;;15.90;9.93;;;3.00;82.70;;;;;;6340753;28;20315;-61
2021/12/26 12:28:09;;;;;;;13.13;9.00;;;3.00;83.40;;;;;;6312004;28;20255;-61
2021/12/26 12:31:18;;;;;;;13.67;9.53;;;2.80;82.50;;;;;;6385657;27;20188;-61
2021/12/26 12:34:19;;;;;;;11.17;9.33;;;2.70;83.50;;;;;;6350901;28;20200;-61
2021/12/26 12:37:26;;;;;;;13.43;9.03;;;2.80;83.00;;;;;;6366340;27;20275;-61
2021/12/26 12:40:36;;;;;;;14.73;9.97;;;2.80;82.60;;;;;;6331065;28;20287;-61
2021/12/26 12:43:47;;;;;;;12.70;9.10;;;2.90;82.40;;;;;;6356432;27;20199;-61
2021/12/26 12:47:00;;;;;;;14.90;9.97;;;2.80;83.00;;;;;;6383829;27;20196;-61
2021/12/26 12:50:03;;;;;;;12.93;9.07;;;2.80;83.50;;;;;;6384703;27;20184;-61
2021/12/26 12:53:04;;;;;;;14.47;10.40;;;2.80;83.30;;;;;;6367140;27;20192;-61
2021/12/26 12:56:05;;;;;;;14.60;10.17;;;2.80;83.70;;;;;;6312953;28;20264;-62
2021/12/26 12:59:12;;;;;;;14.57;9.67;;;2.70;83.10;;;;;;6332004;28;20187;-62
2021/12/26 13:02:30;;;;;;;13.90;9.80;;;2.80;83.70;;;;;;6332157;28;20195;-61
2021/12/26 13:05:34;;;;;;;15.90;9.83;;;2.70;83.50;;;;;;6365715;27;20528;-61
2021/12/26 13:08:36;;;;;;;14.20;10.30;;;2.60;83.70;;;;;;6364938;27;20196;-61
2021/12/26 13:11:36;;;;;;;14.40;9.53;;;2.60;83.60;;;;;;6330830;28;20292;-61
2021/12/26 13:15:07;;;;;;;12.97;9.27;;;2.60;84.00;;;;;;6366173;27;20215;-61
2021/12/26 13:18:08;;;;;;;12.77;9.77;;;2.80;83.50;;;;;;6328282;28;20192;-61
2021/12/26 13:21:10;;;;;;;13.83;10.27;;;2.60;85.20;;;;;;6341249;27;20207;-61
2021/12/26 13:24:11;;;;;;;15.83;11.03;;;2.60;84.40;;;;;;6340140;28;20225;-62
2021/12/26 13:27:22;;;;;;;16.30;11.50;;;2.60;84.90;;;;;;6323789;28;20192;-62
2021/12/26 13:30:28;;;;;;;16.50;10.50;;;2.60;85.00;;;;;;6331118;28;20181;-61
2021/12/26 13:33:36;;;;;;;14.73;9.87;;;2.80;84.80;;;;;;6314456;28;20189;-62
2021/12/26 13:36:37;;;;;;;15.17;10.67;;;2.70;84.60;;;;;;6331656;28;20322;-61
2021/12/26 13:39:38;;;;;;;15.20;10.27;;;2.70;84.20;;;;;;6347860;28;20187;-61
2021/12/26 13:42:39;;;;;;;14.17;10.10;;;2.80;84.30;;;;;;6347093;28;20187;-61
2021/12/26 13:45:43;;;;;;;14.80;10.40;;;2.80;83.90;;;;;;6330746;28;20223;-61
2021/12/26 13:48:46;;;;;;;15.17;10.87;;;2.70;84.50;;;;;;6331211;28;20180;-61
2021/12/26 13:51:54;;;;;;;13.80;10.53;;;2.70;85.00;;;;;;6322851;28;20238;-62
2021/12/26 13:54:56;;;;;;;15.10;10.90;;;2.70;85.00;;;;;;6323990;28;20220;-61
2021/12/26 13:58:02;;;;;;;18.20;10.67;;;2.70;84.50;;;;;;6360522;27;20207;-61
2021/12/26 14:01:03;;;;;;;15.63;11.07;;;2.60;84.80;;;;;;6347342;28;20197;-61
2021/12/26 14:04:10;;;;;;;15.83;10.80;;;2.70;84.00;;;;;;6314402;28;20188;-61
2021/12/26 14:07:17;;;;;;;13.90;10.67;;;2.60;84.90;;;;;;6345500;27;20199;-61
2021/12/26 14:10:20;;;;;;;16.93;12.03;;;2.50;84.90;;;;;;6338779;28;20239;-61
2021/12/26 14:13:21;;;;;;;16.20;12.10;;;2.50;85.10;;;;;;6339268;28;20290;-61
2021/12/26 14:16:31;;;;;;;15.87;10.80;;;2.60;85.10;;;;;;6321516;28;20208;-61
2021/12/26 14:19:32;;;;;;;18.67;11.77;;;2.60;85.10;;;;;;6327884;28;20196;-61
2021/12/26 14:22:33;;;;;;;16.67;12.13;;;2.60;84.80;;;;;;6329816;28;20194;-61
2021/12/26 14:25:33;;;;;;;18.17;11.30;;;2.50;85.20;;;;;;6320851;28;20189;-61
2021/12/26 14:29:01;;;;;;;17.93;11.77;;;2.60;85.20;;;;;;6338960;28;20184;-61
2021/12/26 14:32:06;;;;;;;14.97;10.63;;;2.50;85.40;;;;;;6323701;28;20262;-61
2021/12/26 14:35:14;;;;;;;17.67;11.47;;;2.30;86.10;;;;;;6304295;28;20285;-61
2021/12/26 14:38:16;;;;;;;15.93;11.37;;;2.30;85.80;;;;;;6324599;28;20329;-61
2021/12/26 14:41:17;;;;;;;16.33;11.40;;;2.30;85.90;;;;;;6344599;28;20233;-61
2021/12/26 14:44:24;;;;;;;16.13;10.97;;;2.30;85.90;;;;;;6345782;28;20195;-61
2021/12/26 14:47:31;;;;;;;16.67;12.17;;;2.30;86.10;;;;;;6328523;28;20295;-61
2021/12/26 14:50:31;;;;;;;17.80;12.27;;;2.30;86.30;;;;;;6329947;28;20174;-61
2021/12/26 14:53:32;;;;;;;19.53;12.17;;;2.30;86.30;;;;;;6346435;28;20195;-61
2021/12/26 14:56:46;;;;;;;18.37;12.93;;;2.30;86.20;;;;;;6337977;28;20223;-61
2021/12/26 14:59:56;;;;;;;20.57;13.07;;;2.40;85.90;;;;;;6338257;28;20218;-61
2021/12/26 15:02:58;;;;;;;22.13;13.73;;;2.30;86.20;;;;;;6356540;27;20195;-61
2021/12/26 15:06:12;;;;;;;19.17;13.77;;;2.30;86.60;;;;;;6311990;28;20253;-61
2021/12/26 15:09:28;;;;;;;20.60;13.27;;;2.30;86.50;;;;;;6328519;28;20223;-61
2021/12/26 15:12:35;;;;;;;18.03;12.70;;;2.30;86.20;;;;;;6338219;28;20285;-61
2021/12/26 15:15:49;;;;;;;20.80;13.37;;;2.20;87.00;;;;;;6355614;28;20224;-61
2021/12/26 15:18:58;;;;;;;21.37;13.90;;;2.20;86.80;;;;;;6375801;27;20191;-61
2021/12/26 15:22:04;;;;;;;20.30;14.00;;;2.20;86.90;;;;;;6338416;28;20187;-62
2021/12/26 15:25:05;;;;;;;23.53;13.67;;;2.20;86.80;;;;;;6354879;28;20201;-62
2021/12/26 15:28:17;;;;;;;17.90;12.47;;;2.20;86.60;;;;;;6356334;27;20175;-61
2021/12/26 15:31:36;;;;;;;23.97;14.07;;;2.30;86.30;;;;;;6348355;28;20194;-61
2021/12/26 15:34:39;;;;;;;24.47;14.40;;;2.20;86.70;;;;;;6353690;28;20215;-61
2021/12/26 15:37:41;;;;;;;23.00;13.27;;;2.20;86.80;;;;;;6353296;28;20227;-61
2021/12/26 15:40:42;;;;;;;21.63;14.00;;;2.10;87.20;;;;;;6369372;27;20184;-61
2021/12/26 15:43:42;;;;;;;23.17;13.47;;;2.10;86.70;;;;;;6336421;28;20198;-62
2021/12/26 15:46:44;;;;;;;23.50;14.73;;;2.10;87.10;;;;;;6336469;28;20531;-62
2021/12/26 15:49:45;;;;;;;26.50;14.90;;;2.10;87.00;;;;;;6370173;27;20249;-62
2021/12/26 15:52:46;;;;;;;24.03;14.23;;;2.20;87.50;;;;;;6336516;28;20199;-61
2021/12/26 15:55:47;;;;;;;26.90;15.27;;;2.20;87.00;;;;;;6352180;27;20217;-61
2021/12/26 15:58:51;;;;;;;28.87;16.37;;;2.20;87.30;;;;;;6336450;28;20191;-61
2021/12/26 16:01:52;;;;;;;25.90;15.53;;;2.10;87.20;;;;;;6371447;27;20184;-61
2021/12/26 16:04:53;;;;;;;26.60;15.80;;;2.10;87.50;;;;;;6308040;28;20189;-62
2021/12/26 16:07:54;;;;;;;25.27;15.10;;;2.20;87.40;;;;;;6294931;28;20310;-61
2021/12/26 16:10:56;;;;;;;20.37;13.77;;;2.20;86.50;;;;;;6338241;28;20239;-62